Doyle Atmospheric Data: 05/15/2019 Summary  Detailed Graphs  Station List

  Temperature     Wind Precipitation Visibility
Timestamp Air Wet
Bulb
Dew-
point
24-hr
Max
24-hr
Min
Relative
Humidity
Atmospheric
Pressure
Avg
Speed
Avg
Dir
Spot
Speed
Spot
Dir
Max
Speed
Max
Dir
  Rate Situation Start End 1 hr 3 hr 6 hr 12 hr 24 hr   Situation
Date Time °F °F °F °F °F % in Hg mph ° mph ° mph ° Y/N in/hr text Date Time Date Time in in in in in mi text
05/15/2019 12:04 AM 53.42 44.24 33.26 77.36 46.76 46.0 Not Reported 4.70 SW 4.92 SW 5.37 SW No 0.000 No Precipitation 05/05/2019 06:24 PM 05/05/2019 06:36 PM 0.000 0.000 0.000 0.000 0.000 Not Reported Not Reported
05/15/2019 12:09 AM 53.24 44.06 32.90 77.36 46.76 45.0 Not Reported 5.82 W 5.14 SW 5.37 SW No 0.000 No Precipitation 05/05/2019 06:24 PM 05/05/2019 06:36 PM 0.000 0.000 0.000 0.000 0.000 Not Reported Not Reported
05/15/2019 12:14 AM 53.60 43.88 32.00 77.36 46.76 43.0 Not Reported 4.92 W 4.70 W 6.26 SW No 0.000 No Precipitation 05/05/2019 06:24 PM 05/05/2019 06:36 PM 0.000 0.000 0.000 0.000 0.000 Not Reported Not Reported
05/15/2019 12:19 AM 53.78 43.88 32.00 77.36 46.76 43.0 Not Reported 4.03 W 4.92 SW 6.26 SW No 0.000 No Precipitation 05/05/2019 06:24 PM 05/05/2019 06:36 PM 0.000 0.000 0.000 0.000 0.000 Not Reported Not Reported
05/15/2019 12:24 AM 53.60 43.88 32.18 77.36 46.76 44.0 Not Reported 3.80 SW 4.70 S 5.14 W No 0.000 No Precipitation 05/05/2019 06:24 PM 05/05/2019 06:36 PM 0.000 0.000 0.000 0.000 0.000 Not Reported Not Reported
05/15/2019 12:29 AM 53.42 44.24 33.44 77.36 46.76 45.0 Not Reported 4.70 S 3.58 S 5.14 W No 0.000 No Precipitation 05/05/2019 06:24 PM 05/05/2019 06:36 PM 0.000 0.000 0.000 0.000 0.000 Not Reported Not Reported
05/15/2019 12:34 AM 53.60 44.24 32.72 77.36 46.76 44.0 Not Reported 2.46 SW 1.57 W 5.59 S No 0.000 No Precipitation 05/05/2019 06:24 PM 05/05/2019 06:36 PM 0.000 0.000 0.000 0.000 0.000 Not Reported Not Reported
05/15/2019 12:39 AM 52.88 45.68 37.76 77.36 46.76 53.0 Not Reported 2.24 NE 1.57 N 5.59 S No 0.000 No Precipitation 05/05/2019 06:24 PM 05/05/2019 06:36 PM 0.000 0.000 0.000 0.000 0.000 Not Reported Not Reported
05/15/2019 12:44 AM 53.24 43.34 31.82 77.36 46.76 44.0 Not Reported 3.13 NE 1.57 NW 2.68 SW No 0.000 No Precipitation 05/05/2019 06:24 PM 05/05/2019 06:36 PM 0.000 0.000 0.000 0.000 0.000 Not Reported Not Reported
05/15/2019 12:49 AM 53.96 43.70 31.46 77.36 46.76 41.0 Not Reported 1.12 N 1.34 NW 2.68 SW No 0.000 No Precipitation 05/05/2019 06:24 PM 05/05/2019 06:36 PM 0.000 0.000 0.000 0.000 0.000 Not Reported Not Reported
05/15/2019 12:54 AM 54.32 43.88 31.46 77.36 46.76 43.0 Not Reported 1.34 NW 2.46 NW 3.58 NE No 0.000 No Precipitation 05/05/2019 06:24 PM 05/05/2019 06:36 PM 0.000 0.000 0.000 0.000 0.000 Not Reported Not Reported
05/15/2019 12:59 AM 53.60 43.88 32.00 77.36 46.76 44.0 Not Reported 3.58 SW 3.36 W 3.58 NE No 0.000 No Precipitation 05/05/2019 06:24 PM 05/05/2019 06:36 PM 0.000 0.000 0.000 0.000 0.000 Not Reported Not Reported
05/15/2019 01:04 AM 53.96 43.88 31.64 66.02 43.88 42.0 Not Reported 3.80 W 5.37 W 4.25 W No 0.000 No Precipitation 05/05/2019 06:24 PM 05/05/2019 06:36 PM 0.000 0.000 0.000 0.000 0.000 Not Reported Not Reported
05/15/2019 01:09 AM 53.42 44.60 34.16 66.02 43.88 47.0 Not Reported 3.58 NW 1.57 NW 4.25 W No 0.000 No Precipitation 05/05/2019 06:24 PM 05/05/2019 06:36 PM 0.000 0.000 0.000 0.000 0.000 Not Reported Not Reported
05/15/2019 01:14 AM 52.70 43.16 31.64 66.02 43.88 43.0 Not Reported 1.79 W 3.13 NW 5.82 W No 0.000 No Precipitation 05/05/2019 06:24 PM 05/05/2019 06:36 PM 0.000 0.000 0.000 0.000 0.000 Not Reported Not Reported
05/15/2019 01:19 AM 53.42 43.52 31.46 66.02 43.88 42.0 Not Reported 1.79 NW 3.13 W 5.82 W No 0.000 No Precipitation 05/05/2019 06:24 PM 05/05/2019 06:36 PM 0.000 0.000 0.000 0.000 0.000 Not Reported Not Reported
05/15/2019 01:24 AM 53.60 44.24 32.90 66.02 43.88 45.0 Not Reported 1.57 NW 3.13 NW 3.13 NW No 0.000 No Precipitation 05/05/2019 06:24 PM 05/05/2019 06:36 PM 0.000 0.000 0.000 0.000 0.000 Not Reported Not Reported
05/15/2019 01:29 AM 53.42 43.88 32.18 66.02 43.88 45.0 Not Reported 2.01 W 2.68 W 3.13 NW No 0.000 No Precipitation 05/05/2019 06:24 PM 05/05/2019 06:36 PM 0.000 0.000 0.000 0.000 0.000 Not Reported Not Reported
05/15/2019 01:34 AM 53.42 44.24 32.90 66.02 43.88 45.0 Not Reported 1.79 W 2.01 W 3.13 NW No 0.000 No Precipitation 05/05/2019 06:24 PM 05/05/2019 06:36 PM 0.000 0.000 0.000 0.000 0.000 Not Reported Not Reported
05/15/2019 01:39 AM 53.60 43.88 32.18 66.02 43.88 43.0 Not Reported 1.57 N 2.46 NW 3.13 NW No 0.000 No Precipitation 05/05/2019 06:24 PM 05/05/2019 06:36 PM 0.000 0.000 0.000 0.000 0.000 Not Reported Not Reported
05/15/2019 01:44 AM 53.78 44.06 32.36 66.02 43.88 42.0 Not Reported 2.46 NE 1.34 NE 2.68 NE No 0.000 No Precipitation 05/05/2019 06:24 PM 05/05/2019 06:36 PM 0.000 0.000 0.000 0.000 0.000 Not Reported Not Reported
05/15/2019 01:49 AM 54.14 43.52 30.38 66.02 43.88 39.0 Not Reported 0.00 N 1.79 S 2.68 NE No 0.000 No Precipitation 05/05/2019 06:24 PM 05/05/2019 06:36 PM 0.000 0.000 0.000 0.000 0.000 Not Reported Not Reported
05/15/2019 01:54 AM 52.16 45.14 36.68 66.02 43.88 57.0 Not Reported 4.03 S 6.93 SE 2.91 SW No 0.000 No Precipitation 05/05/2019 06:24 PM 05/05/2019 06:36 PM 0.000 0.000 0.000 0.000 0.000 Not Reported Not Reported
05/15/2019 01:59 AM 50.36 44.42 37.76 66.02 43.88 61.0 Not Reported 3.13 SE 4.47 S 2.91 SW No 0.000 No Precipitation 05/05/2019 06:24 PM 05/05/2019 06:36 PM 0.000 0.000 0.000 0.000 0.000 Not Reported Not Reported
05/15/2019 02:04 AM 49.64 43.88 37.40 66.02 43.88 62.0 Not Reported 4.70 S 4.03 S 6.93 SE No 0.000 No Precipitation 05/05/2019 06:24 PM 05/05/2019 06:36 PM 0.000 0.000 0.000 0.000 0.000 Not Reported Not Reported
05/15/2019 02:09 AM 49.64 43.70 37.04 66.02 43.88 62.0 Not Reported 3.13 E 3.58 E 6.93 SE No 0.000 No Precipitation 05/05/2019 06:24 PM 05/05/2019 06:36 PM 0.000 0.000 0.000 0.000 0.000 Not Reported Not Reported
05/15/2019 02:14 AM 49.82 44.42 38.12 66.02 43.88 62.0 Not Reported 3.80 SE 5.14 SW 5.37 S No 0.000 No Precipitation 05/05/2019 06:24 PM 05/05/2019 06:36 PM 0.000 0.000 0.000 0.000 0.000 Not Reported Not Reported
05/15/2019 02:19 AM 50.54 43.52 35.60 66.02 43.88 57.0 Not Reported 2.91 SE 3.13 SE 5.37 S No 0.000 No Precipitation 05/05/2019 06:24 PM 05/05/2019 06:36 PM 0.000 0.000 0.000 0.000 0.000 Not Reported Not Reported
05/15/2019 02:24 AM 50.00 44.06 37.40 66.02 43.88 62.0 Not Reported 3.13 SE 2.68 SE 5.59 SE No 0.000 No Precipitation 05/05/2019 06:24 PM 05/05/2019 06:36 PM 0.000 0.000 0.000 0.000 0.000 Not Reported Not Reported
05/15/2019 02:29 AM 49.82 43.70 36.50 66.02 43.88 60.0 Not Reported 4.70 S 6.93 S 5.59 SE No 0.000 No Precipitation 05/05/2019 06:24 PM 05/05/2019 06:36 PM 0.000 0.000 0.000 0.000 0.000 Not Reported Not Reported
05/15/2019 02:34 AM 50.90 43.34 34.52 66.02 43.88 54.0 Not Reported 2.91 S 3.36 S 7.61 S No 0.000 No Precipitation 05/05/2019 06:24 PM 05/05/2019 06:36 PM 0.000 0.000 0.000 0.000 0.000 Not Reported Not Reported
05/15/2019 02:39 AM 51.26 43.52 34.52 66.02 43.88 50.0 Not Reported 5.14 SW 4.03 SW 7.61 S No 0.000 No Precipitation 05/05/2019 06:24 PM 05/05/2019 06:36 PM 0.000 0.000 0.000 0.000 0.000 Not Reported Not Reported
05/15/2019 02:44 AM 51.44 43.70 34.52 66.02 43.88 51.0 Not Reported 4.03 S 4.70 SW 5.82 SW No 0.000 No Precipitation 05/05/2019 06:24 PM 05/05/2019 06:36 PM 0.000 0.000 0.000 0.000 0.000 Not Reported Not Reported
05/15/2019 02:49 AM 52.16 43.70 33.80 66.02 43.88 51.0 Not Reported 6.04 W 5.82 SW 5.82 SW No 0.000 No Precipitation 05/05/2019 06:24 PM 05/05/2019 06:36 PM 0.000 0.000 0.000 0.000 0.000 Not Reported Not Reported
05/15/2019 02:54 AM 52.70 44.06 33.98 66.02 43.88 48.0 Not Reported 5.59 SW 4.25 SW 7.16 SW No 0.000 No Precipitation 05/05/2019 06:24 PM 05/05/2019 06:36 PM 0.000 0.000 0.000 0.000 0.000 Not Reported Not Reported
05/15/2019 02:59 AM 52.16 44.06 34.52 66.02 43.88 54.0 Not Reported 2.68 SE 5.14 E 7.16 SW No 0.000 No Precipitation 05/05/2019 06:24 PM 05/05/2019 06:36 PM 0.000 0.000 0.000 0.000 0.000 Not Reported Not Reported
05/15/2019 03:04 AM 50.90 43.52 34.88 66.02 43.88 54.0 Not Reported 6.04 E 4.70 E 6.71 SW No 0.000 No Precipitation 05/05/2019 06:24 PM 05/05/2019 06:36 PM 0.000 0.000 0.000 0.000 0.000 Not Reported Not Reported
05/15/2019 03:09 AM 50.54 43.88 36.14 66.02 43.88 58.0 Not Reported 3.80 E 3.13 NE 6.71 SW No 0.000 No Precipitation 05/05/2019 06:24 PM 05/05/2019 06:36 PM 0.000 0.000 0.000 0.000 0.000 Not Reported Not Reported
05/15/2019 03:14 AM 50.72 43.70 35.42 66.02 43.88 54.0 Not Reported 4.03 W 8.05 SW 6.71 E No 0.000 No Precipitation 05/05/2019 06:24 PM 05/05/2019 06:36 PM 0.000 0.000 0.000 0.000 0.000 Not Reported Not Reported
05/15/2019 03:19 AM 51.80 43.34 33.08 66.02 43.88 48.0 Not Reported 4.03 SW 3.13 S 6.71 E No 0.000 No Precipitation 05/05/2019 06:24 PM 05/05/2019 06:36 PM 0.000 0.000 0.000 0.000 0.000 Not Reported Not Reported
05/15/2019 03:24 AM 51.62 44.06 35.24 66.02 43.88 50.0 Not Reported 2.91 S 2.46 S 9.40 SW No 0.000 No Precipitation 05/05/2019 06:24 PM 05/05/2019 06:36 PM 0.000 0.000 0.000 0.000 0.000 Not Reported Not Reported
05/15/2019 03:29 AM 51.80 42.98 32.00 66.02 43.88 49.0 Not Reported 2.01 SW 2.46 W 9.40 SW No 0.000 No Precipitation 05/05/2019 06:24 PM 05/05/2019 06:36 PM 0.000 0.000 0.000 0.000 0.000 Not Reported Not Reported
05/15/2019 03:34 AM 52.16 44.06 34.16 66.02 43.88 48.0 Not Reported 1.79 W 0.67 SW 4.25 S No 0.000 No Precipitation 05/05/2019 06:24 PM 05/05/2019 06:36 PM 0.000 0.000 0.000 0.000 0.000 Not Reported Not Reported
05/15/2019 03:39 AM 51.98 44.06 34.88 66.02 43.88 52.0 Not Reported 0.00 SW 0.67 NE 4.25 S No 0.000 No Precipitation 05/05/2019 06:24 PM 05/05/2019 06:36 PM 0.000 0.000 0.000 0.000 0.000 Not Reported Not Reported
05/15/2019 03:44 AM 51.26 43.88 35.42 66.02 43.88 58.0 Not Reported 4.25 NE 4.03 E 3.36 NE No 0.000 No Precipitation 05/05/2019 06:24 PM 05/05/2019 06:36 PM 0.000 0.000 0.000 0.000 0.000 Not Reported Not Reported
05/15/2019 03:49 AM 51.26 42.98 33.08 66.02 43.88 49.0 Not Reported 1.79 E 0.00 E 3.36 NE No 0.000 No Precipitation 05/05/2019 06:24 PM 05/05/2019 06:36 PM 0.000 0.000 0.000 0.000 0.000 Not Reported Not Reported
05/15/2019 03:54 AM 51.26 44.06 35.96 66.02 43.88 55.0 Not Reported 0.67 S 0.89 SE 4.70 NE No 0.000 No Precipitation 05/05/2019 06:24 PM 05/05/2019 06:36 PM 0.000 0.000 0.000 0.000 0.000 Not Reported Not Reported
05/15/2019 03:59 AM 50.90 44.78 37.94 66.02 43.88 60.0 Not Reported 2.24 E 0.22 NE 4.70 NE No 0.000 No Precipitation 05/05/2019 06:24 PM 05/05/2019 06:36 PM 0.000 0.000 0.000 0.000 0.000 Not Reported Not Reported
05/15/2019 04:04 AM 50.90 43.88 36.86 66.02 43.88 61.0 Not Reported 1.34 W 0.00 W 2.46 E No 0.000 No Precipitation 05/05/2019 06:24 PM 05/05/2019 06:36 PM 0.000 0.000 0.000 0.000 0.000 Not Reported Not Reported
05/15/2019 04:09 AM 50.90 43.88 36.14 66.02 43.88 57.0 Not Reported 1.34 E 1.12 W 2.46 E No 0.000 No Precipitation 05/05/2019 06:24 PM 05/05/2019 06:36 PM 0.000 0.000 0.000 0.000 0.000 Not Reported Not Reported
05/15/2019 04:14 AM 50.72 42.44 32.36 66.02 43.88 48.0 Not Reported 4.25 SW 0.67 W 3.58 SW No 0.000 No Precipitation 05/05/2019 06:24 PM 05/05/2019 06:36 PM 0.000 0.000 0.000 0.000 0.000 Not Reported Not Reported
05/15/2019 04:19 AM 52.16 42.98 31.82 66.02 43.88 45.0 Not Reported 0.89 E 1.34 E 3.58 SW No 0.000 No Precipitation 05/05/2019 06:24 PM 05/05/2019 06:36 PM 0.000 0.000 0.000 0.000 0.000 Not Reported Not Reported
05/15/2019 04:24 AM 53.42 43.52 31.46 66.02 43.88 43.0 Not Reported 2.01 SE 2.91 SE 4.92 SW No 0.000 No Precipitation 05/05/2019 06:24 PM 05/05/2019 06:36 PM 0.000 0.000 0.000 0.000 0.000 Not Reported Not Reported
05/15/2019 04:29 AM 51.98 44.78 35.78 66.02 43.88 57.0 Not Reported 1.79 S 4.25 SW 4.92 SW No 0.000 No Precipitation 05/05/2019 06:24 PM 05/05/2019 06:36 PM 0.000 0.000 0.000 0.000 0.000 Not Reported Not Reported
05/15/2019 04:34 AM 50.36 43.16 34.52 66.02 43.88 54.0 Not Reported 4.92 SW 2.68 SW 4.92 W No 0.000 No Precipitation 05/05/2019 06:24 PM 05/05/2019 06:36 PM 0.000 0.000 0.000 0.000 0.000 Not Reported Not Reported
05/15/2019 04:39 AM 50.18 42.98 34.34 66.02 43.88 54.0 Not Reported 3.13 SW 4.47 S 4.92 W No 0.000 No Precipitation 05/05/2019 06:24 PM 05/05/2019 06:36 PM 0.000 0.000 0.000 0.000 0.000 Not Reported Not Reported
05/15/2019 04:44 AM 49.28 43.16 35.78 66.02 43.88 59.0 Not Reported 3.58 S 4.03 S 5.37 SW No 0.000 No Precipitation 05/05/2019 06:24 PM 05/05/2019 06:36 PM 0.000 0.000 0.000 0.000 0.000 Not Reported Not Reported
05/15/2019 04:49 AM 49.46 42.08 33.44 66.02 43.88 59.0 Not Reported 4.25 SW 4.92 SW 5.37 SW No 0.000 No Precipitation 05/05/2019 06:24 PM 05/05/2019 06:36 PM 0.000 0.000 0.000 0.000 0.000 Not Reported Not Reported
05/15/2019 04:54 AM 49.28 42.98 35.42 66.02 43.88 57.0 Not Reported 5.14 SW 4.92 S 5.59 SW No 0.000 No Precipitation 05/05/2019 06:24 PM 05/05/2019 06:36 PM 0.000 0.000 0.000 0.000 0.000 Not Reported Not Reported
05/15/2019 04:59 AM 49.46 42.98 35.42 66.02 43.88 56.0 Not Reported 4.70 SW 3.58 SW 5.59 SW No 0.000 No Precipitation 05/05/2019 06:24 PM 05/05/2019 06:36 PM 0.000 0.000 0.000 0.000 0.000 Not Reported Not Reported
05/15/2019 05:04 AM 50.18 42.44 33.26 66.02 43.88 53.0 Not Reported 2.24 S 2.01 SW 5.59 SW No 0.000 No Precipitation 05/05/2019 06:24 PM 05/05/2019 06:36 PM 0.000 0.000 0.000 0.000 0.000 Not Reported Not Reported
05/15/2019 05:09 AM 50.18 42.98 34.52 66.02 43.88 54.0 Not Reported 4.25 SW 2.68 S 5.59 SW No 0.000 No Precipitation 05/05/2019 06:24 PM 05/05/2019 06:36 PM 0.000 0.000 0.000 0.000 0.000 Not Reported Not Reported
05/15/2019 05:14 AM 50.18 44.24 35.42 66.02 43.88 62.0 Not Reported 1.12 SW 0.89 E 4.70 SW No 0.000 No Precipitation 05/05/2019 06:24 PM 05/05/2019 06:36 PM 0.000 0.000 0.000 0.000 0.000 Not Reported Not Reported
05/15/2019 05:19 AM 49.28 43.70 37.58 66.02 43.88 65.0 Not Reported 0.67 N 0.00 W 4.70 SW No 0.000 No Precipitation 05/05/2019 06:24 PM 05/05/2019 06:36 PM 0.000 0.000 0.000 0.000 0.000 Not Reported Not Reported
05/15/2019 05:24 AM 49.64 43.52 36.86 66.02 43.88 65.0 Not Reported 0.45 SE 0.45 SE 3.13 E No 0.000 No Precipitation 05/05/2019 06:24 PM 05/05/2019 06:36 PM 0.000 0.000 0.000 0.000 0.000 Not Reported Not Reported
05/15/2019 05:29 AM 48.92 43.52 37.58 66.02 43.88 61.0 Not Reported 0.22 S 0.00 E 3.13 E No 0.000 No Precipitation 05/05/2019 06:24 PM 05/05/2019 06:36 PM 0.000 0.000 0.000 0.000 0.000 Not Reported Not Reported
05/15/2019 05:34 AM 49.64 43.70 37.04 66.02 43.88 61.0 Not Reported 0.45 SW 1.79 SW 1.34 E No 0.000 No Precipitation 05/05/2019 06:24 PM 05/05/2019 06:36 PM 0.000 0.000 0.000 0.000 0.000 Not Reported Not Reported
05/15/2019 05:39 AM 49.10 42.98 36.32 66.02 43.88 60.0 Not Reported 3.36 S 3.58 SW 1.34 E No 0.000 No Precipitation 05/05/2019 06:24 PM 05/05/2019 06:36 PM 0.000 0.000 0.000 0.000 0.000 Not Reported Not Reported
05/15/2019 05:44 AM 48.56 42.98 36.50 66.02 43.88 63.0 Not Reported 3.36 S 1.34 SW 4.03 SW No 0.000 No Precipitation 05/05/2019 06:24 PM 05/05/2019 06:36 PM 0.000 0.000 0.000 0.000 0.000 Not Reported Not Reported
05/15/2019 05:49 AM 48.74 43.52 38.12 66.02 43.88 67.0 Not Reported 0.89 NE 1.12 E 4.03 SW No 0.000 No Precipitation 05/05/2019 06:24 PM 05/05/2019 06:36 PM 0.000 0.000 0.000 0.000 0.000 Not Reported Not Reported
05/15/2019 05:54 AM 49.10 43.34 37.04 66.02 43.88 61.0 Not Reported 0.67 NE 2.46 NE 3.58 S No 0.000 No Precipitation 05/05/2019 06:24 PM 05/05/2019 06:36 PM 0.000 0.000 0.000 0.000 0.000 Not Reported Not Reported
05/15/2019 05:59 AM 48.92 43.70 37.94 66.02 43.88 67.0 Not Reported 3.13 E 2.68 E 3.58 S No 0.000 No Precipitation 05/05/2019 06:24 PM 05/05/2019 06:36 PM 0.000 0.000 0.000 0.000 0.000 Not Reported Not Reported
05/15/2019 06:04 AM 48.74 42.98 36.50 66.02 43.88 63.0 Not Reported 2.01 E 4.70 E 3.13 E No 0.000 No Precipitation 05/05/2019 06:24 PM 05/05/2019 06:36 PM 0.000 0.000 0.000 0.000 0.000 Not Reported Not Reported
05/15/2019 06:09 AM 49.10 42.98 35.78 66.02 43.88 60.0 Not Reported 3.58 E 3.80 E 3.13 E No 0.000 No Precipitation 05/05/2019 06:24 PM 05/05/2019 06:36 PM 0.000 0.000 0.000 0.000 0.000 Not Reported Not Reported
05/15/2019 06:14 AM 49.46 42.80 35.06 66.02 43.88 60.0 Not Reported 3.36 E 1.34 SE 4.70 E No 0.000 No Precipitation 05/05/2019 06:24 PM 05/05/2019 06:36 PM 0.000 0.000 0.000 0.000 0.000 Not Reported Not Reported
05/15/2019 06:19 AM 49.10 42.98 36.32 66.02 43.88 62.0 Not Reported 0.89 SW 1.57 SW 4.70 E No 0.000 No Precipitation 05/05/2019 06:24 PM 05/05/2019 06:36 PM 0.000 0.000 0.000 0.000 0.000 Not Reported Not Reported
05/15/2019 06:24 AM 48.38 43.70 38.66 66.02 43.88 68.0 Not Reported 1.57 SW 2.68 SW 3.58 E No 0.000 No Precipitation 05/05/2019 06:24 PM 05/05/2019 06:36 PM 0.000 0.000 0.000 0.000 0.000 Not Reported Not Reported
05/15/2019 06:29 AM 48.20 42.62 36.14 66.02 43.88 61.0 Not Reported 3.13 S 2.46 SE 3.58 E No 0.000 No Precipitation 05/05/2019 06:24 PM 05/05/2019 06:36 PM 0.000 0.000 0.000 0.000 0.000 Not Reported Not Reported
05/15/2019 06:34 AM 48.56 44.06 39.02 66.02 43.88 69.0 Not Reported 1.34 SE 2.91 S 3.36 S No 0.000 No Precipitation 05/05/2019 06:24 PM 05/05/2019 06:36 PM 0.000 0.000 0.000 0.000 0.000 Not Reported Not Reported
05/15/2019 06:39 AM 47.84 43.34 38.12 66.02 43.88 68.0 Not Reported 1.79 S 1.79 S 3.36 S No 0.000 No Precipitation 05/05/2019 06:24 PM 05/05/2019 06:36 PM 0.000 0.000 0.000 0.000 0.000 Not Reported Not Reported
05/15/2019 06:44 AM 48.20 42.80 36.68 66.02 43.88 64.0 Not Reported 1.57 SE 1.79 SE 3.13 S No 0.000 No Precipitation 05/05/2019 06:24 PM 05/05/2019 06:36 PM 0.000 0.000 0.000 0.000 0.000 Not Reported Not Reported
05/15/2019 06:49 AM 48.38 44.60 40.46 66.02 43.88 72.0 Not Reported 2.01 E 2.24 SE 3.13 S No 0.000 No Precipitation 05/05/2019 06:24 PM 05/05/2019 06:36 PM 0.000 0.000 0.000 0.000 0.000 Not Reported Not Reported
05/15/2019 06:54 AM 47.48 43.52 38.84 66.02 43.88 70.0 Not Reported 1.79 S 0.00 S 3.36 E No 0.000 No Precipitation 05/05/2019 06:24 PM 05/05/2019 06:36 PM 0.000 0.000 0.000 0.000 0.000 Not Reported Not Reported
05/15/2019 06:59 AM 48.74 43.16 37.22 66.02 43.88 61.0 Not Reported 1.34 E 1.79 E 3.36 E No 0.000 No Precipitation 05/05/2019 06:24 PM 05/05/2019 06:36 PM 0.000 0.000 0.000 0.000 0.000 Not Reported Not Reported
05/15/2019 07:04 AM 49.64 43.34 35.96 66.02 43.88 66.0 Not Reported 2.91 E 0.45 SW 2.91 SE No 0.000 No Precipitation 05/05/2019 06:24 PM 05/05/2019 06:36 PM 0.000 0.000 0.000 0.000 0.000 Not Reported Not Reported
05/15/2019 07:09 AM 48.56 44.06 38.66 66.02 43.88 69.0 Not Reported 2.68 SE 5.82 S 2.91 SE No 0.000 No Precipitation 05/05/2019 06:24 PM 05/05/2019 06:36 PM 0.000 0.000 0.000 0.000 0.000 Not Reported Not Reported
05/15/2019 07:14 AM 47.12 42.98 38.48 66.02 43.88 71.0 Not Reported 4.47 S 5.37 SE 5.82 S No 0.000 No Precipitation 05/05/2019 06:24 PM 05/05/2019 06:36 PM 0.000 0.000 0.000 0.000 0.000 Not Reported Not Reported
05/15/2019 07:19 AM 47.48 42.80 37.58 66.02 43.88 65.0 Not Reported 7.16 S 7.38 SE 5.82 S No 0.000 No Precipitation 05/05/2019 06:24 PM 05/05/2019 06:36 PM 0.000 0.000 0.000 0.000 0.000 Not Reported Not Reported
05/15/2019 07:24 AM 48.92 43.34 36.86 66.02 43.88 62.0 Not Reported 5.82 SE 6.26 SE 8.50 S No 0.000 No Precipitation 05/05/2019 06:24 PM 05/05/2019 06:36 PM 0.000 0.000 0.000 0.000 0.000 Not Reported Not Reported
05/15/2019 07:29 AM 47.66 43.52 38.84 66.02 43.88 71.0 Not Reported 6.49 S 6.04 S 8.50 S No 0.000 No Precipitation 05/05/2019 06:24 PM 05/05/2019 06:36 PM 0.000 0.000 0.000 0.000 0.000 Not Reported Not Reported
05/15/2019 07:34 AM 47.30 43.16 38.66 66.02 43.88 71.0 Not Reported 5.14 S 5.59 S 6.71 S No 0.000 No Precipitation 05/05/2019 06:24 PM 05/05/2019 06:36 PM 0.000 0.000 0.000 0.000 0.000 Not Reported Not Reported
05/15/2019 07:39 AM 47.48 43.52 39.20 66.02 43.88 72.0 Not Reported 4.92 S 5.59 S 6.71 S No 0.000 No Precipitation 05/05/2019 06:24 PM 05/05/2019 06:36 PM 0.000 0.000 0.000 0.000 0.000 Not Reported Not Reported
05/15/2019 07:44 AM 47.48 43.52 39.02 66.02 43.88 71.0 Not Reported 5.82 S 4.70 S 6.26 S No 0.000 No Precipitation 05/05/2019 06:24 PM 05/05/2019 06:36 PM 0.000 0.000 0.000 0.000 0.000 Not Reported Not Reported
05/15/2019 07:49 AM 48.02 43.70 39.20 66.02 43.88 71.0 Not Reported 5.14 S 6.04 S 6.26 S No 0.000 No Precipitation 05/05/2019 06:24 PM 05/05/2019 06:36 PM 0.000 0.000 0.000 0.000 0.000 Not Reported Not Reported
05/15/2019 07:54 AM 48.92 43.70 38.12 66.02 43.88 64.0 Not Reported 8.50 S 7.16 S 7.61 S No 0.000 No Precipitation 05/05/2019 06:24 PM 05/05/2019 06:36 PM 0.000 0.000 0.000 0.000 0.000 Not Reported Not Reported
05/15/2019 07:59 AM 50.00 43.52 36.50 66.02 43.88 61.0 Not Reported 7.61 S 7.61 S 7.61 S No 0.000 No Precipitation 05/05/2019 06:24 PM 05/05/2019 06:36 PM 0.000 0.000 0.000 0.000 0.000 Not Reported Not Reported
05/15/2019 08:04 AM 49.82 44.24 38.12 66.02 43.88 64.0 Not Reported 5.82 S 6.04 S 8.72 S No 0.000 No Precipitation 05/05/2019 06:24 PM 05/05/2019 06:36 PM 0.000 0.000 0.000 0.000 0.000 Not Reported Not Reported
05/15/2019 08:09 AM 50.00 43.70 36.86 66.02 43.88 60.0 Not Reported 4.03 SW 2.24 NW 8.72 S No 0.000 No Precipitation 05/05/2019 06:24 PM 05/05/2019 06:36 PM 0.000 0.000 0.000 0.000 0.000 Not Reported Not Reported
05/15/2019 08:14 AM 49.64 45.32 40.64 66.02 43.88 69.0 Not Reported 2.68 N 2.01 N 7.16 S No 0.000 No Precipitation 05/05/2019 06:24 PM 05/05/2019 06:36 PM 0.000 0.000 0.000 0.000 0.000 Not Reported Not Reported
05/15/2019 08:19 AM 49.28 45.50 41.36 66.02 43.88 72.0 Not Reported 4.25 N 5.14 N 7.16 S No 0.000 No Precipitation 05/05/2019 06:24 PM 05/05/2019 06:36 PM 0.000 0.000 0.000 0.000 0.000 Not Reported Not Reported
05/15/2019 08:24 AM 50.18 43.88 36.86 66.02 43.88 59.0 Not Reported 3.13 N 0.45 N 5.14 N No 0.000 No Precipitation 05/05/2019 06:24 PM 05/05/2019 06:36 PM 0.000 0.000 0.000 0.000 0.000 Not Reported Not Reported
05/15/2019 08:29 AM 50.72 45.50 39.92 66.02 43.88 63.0 Not Reported 1.34 E 3.36 NE 5.14 N No 0.000 No Precipitation 05/05/2019 06:24 PM 05/05/2019 06:36 PM 0.000 0.000 0.000 0.000 0.000 Not Reported Not Reported
05/15/2019 08:34 AM 50.18 45.50 40.64 66.02 43.88 70.0 Not Reported 5.14 NE 4.70 E 4.25 NE No 0.000 No Precipitation 05/05/2019 06:24 PM 05/05/2019 06:36 PM 0.000 0.000 0.000 0.000 0.000 Not Reported Not Reported
05/15/2019 08:39 AM 50.54 44.42 38.12 66.02 43.88 62.0 Not Reported 3.36 E 2.01 NE 4.25 NE No 0.000 No Precipitation 05/05/2019 06:24 PM 05/05/2019 06:36 PM 0.000 0.000 0.000 0.000 0.000 Not Reported Not Reported
05/15/2019 08:44 AM 50.90 44.60 37.58 66.02 43.88 60.0 Not Reported 2.91 NE 5.37 NE 5.37 NE No 0.000 No Precipitation 05/05/2019 06:24 PM 05/05/2019 06:36 PM 0.000 0.000 0.000 0.000 0.000 Not Reported Not Reported
05/15/2019 08:49 AM 51.08 44.96 38.30 66.02 43.88 61.0 Not Reported 6.04 NE 4.92 NE 5.37 NE No 0.000 No Precipitation 05/05/2019 06:24 PM 05/05/2019 06:36 PM 0.000 0.000 0.000 0.000 0.000 Not Reported Not Reported
05/15/2019 08:54 AM 51.44 45.32 38.66 66.02 43.88 61.0 Not Reported 4.47 NE 5.37 NE 6.49 NE No 0.000 No Precipitation 05/05/2019 06:24 PM 05/05/2019 06:36 PM 0.000 0.000 0.000 0.000 0.000 Not Reported Not Reported
05/15/2019 08:59 AM 51.80 45.50 38.66 66.02 43.88 58.0 Not Reported 6.26 NE 6.26 NE 6.49 NE No 0.000 No Precipitation 05/05/2019 06:24 PM 05/05/2019 06:36 PM 0.000 0.000 0.000 0.000 0.000 Not Reported Not Reported
05/15/2019 09:04 AM 52.34 45.14 37.40 66.02 43.88 54.0 Not Reported 5.14 NE 5.37 NE 6.71 NE No 0.000 No Precipitation 05/05/2019 06:24 PM 05/05/2019 06:36 PM 0.000 0.000 0.000 0.000 0.000 Not Reported Not Reported
05/15/2019 09:09 AM 52.88 45.14 37.04 66.02 43.88 54.0 Not Reported 4.03 NE 3.36 NE 6.71 NE No 0.000 No Precipitation 05/05/2019 06:24 PM 05/05/2019 06:36 PM 0.000 0.000 0.000 0.000 0.000 Not Reported Not Reported
05/15/2019 09:14 AM 53.60 45.68 37.40 66.02 43.88 54.0 Not Reported 3.58 E 2.68 SE 5.82 NE No 0.000 No Precipitation 05/05/2019 06:24 PM 05/05/2019 06:36 PM 0.000 0.000 0.000 0.000 0.000 Not Reported Not Reported
05/15/2019 09:19 AM 54.68 45.86 36.14 66.02 43.88 49.0 Not Reported 8.28 SE 6.49 SE 5.82 NE No 0.000 No Precipitation 05/05/2019 06:24 PM 05/05/2019 06:36 PM 0.000 0.000 0.000 0.000 0.000 Not Reported Not Reported
05/15/2019 09:24 AM 54.14 45.86 36.50 66.02 43.88 52.0 Not Reported 9.17 SE 7.83 SE 8.95 SE No 0.000 No Precipitation 05/05/2019 06:24 PM 05/05/2019 06:36 PM 0.000 0.000 0.000 0.000 0.000 Not Reported Not Reported
05/15/2019 09:29 AM 53.96 45.86 37.40 66.02 43.88 53.0 Not Reported 10.96 S 8.05 S 8.95 SE No 0.000 No Precipitation 05/05/2019 06:24 PM 05/05/2019 06:36 PM 0.000 0.000 0.000 0.000 0.000 Not Reported Not Reported
05/15/2019 09:34 AM 54.32 45.68 36.50 66.02 43.88 49.0 Not Reported 7.16 SE 9.40 SE 13.20 SE No 0.000 No Precipitation 05/05/2019 06:24 PM 05/05/2019 06:36 PM 0.000 0.000 0.000 0.000 0.000 Not Reported Not Reported
05/15/2019 09:39 AM 54.50 46.22 37.22 66.02 43.88 53.0 Not Reported 12.30 SE 7.16 SE 13.20 SE No 0.000 No Precipitation 05/05/2019 06:24 PM 05/05/2019 06:36 PM 0.000 0.000 0.000 0.000 0.000 Not Reported Not Reported
05/15/2019 09:44 AM 54.32 46.22 37.40 66.02 43.88 51.0 Not Reported 9.84 S 4.92 S 13.42 SE No 0.000 No Precipitation 05/05/2019 06:24 PM 05/05/2019 06:36 PM 0.000 0.000 0.000 0.000 0.000 Not Reported Not Reported
05/15/2019 09:49 AM 53.78 46.58 39.02 66.02 43.88 56.0 Not Reported 4.03 S 2.91 S 13.42 SE No 0.000 No Precipitation 05/05/2019 06:24 PM 05/05/2019 06:36 PM 0.000 0.000 0.000 0.000 0.000 Not Reported Not Reported
05/15/2019 09:54 AM 53.60 45.86 37.40 66.02 43.88 59.0 Not Reported 4.92 S 3.80 SE 10.74 S No 0.000 No Precipitation 05/05/2019 06:24 PM 05/05/2019 06:36 PM 0.000 0.000 0.000 0.000 0.000 Not Reported Not Reported
05/15/2019 09:59 AM 53.42 46.22 38.66 66.02 43.88 58.0 Not Reported 5.37 S 4.03 S 10.74 S No 0.000 No Precipitation 05/05/2019 06:24 PM 05/05/2019 06:36 PM 0.000 0.000 0.000 0.000 0.000 Not Reported Not Reported
05/15/2019 10:04 AM 53.96 46.04 37.40 66.02 43.88 54.0 Not Reported 3.13 SE 1.57 SE 6.04 S No 0.000 No Precipitation 05/05/2019 06:24 PM 05/05/2019 06:36 PM 0.000 0.000 0.000 0.000 0.000 Not Reported Not Reported
05/15/2019 10:09 AM 53.78 47.12 40.46 66.02 43.88 60.0 Not Reported 3.80 S 2.46 S 6.04 S No 0.000 No Precipitation 05/05/2019 06:24 PM 05/05/2019 06:36 PM 0.000 0.000 0.000 0.000 0.000 Not Reported Not Reported
05/15/2019 10:14 AM 53.42 46.94 40.10 66.02 43.88 61.0 Not Reported 3.80 S 5.59 SW 4.03 S No 0.000 No Precipitation 05/05/2019 06:24 PM 05/05/2019 06:36 PM 0.000 0.000 0.000 0.000 0.000 Not Reported Not Reported
05/15/2019 10:19 AM 53.24 47.48 41.72 66.02 43.88 64.0 Not Reported 2.46 SW 2.68 S 4.03 S No 0.000 No Precipitation 05/05/2019 06:24 PM 05/05/2019 06:36 PM 0.000 0.000 0.000 0.000 0.000 Not Reported Not Reported
05/15/2019 10:24 AM 53.42 46.94 40.46 66.02 43.88 60.0 Not Reported 0.67 S 0.89 SW 5.59 SW No 0.000 No Precipitation 05/05/2019 06:24 PM 05/05/2019 06:36 PM 0.000 0.000 0.000 0.000 0.000 Not Reported Not Reported
05/15/2019 10:29 AM 53.78 47.12 40.46 66.02 43.88 62.0 Not Reported 1.12 NE 1.12 NE 5.59 SW No 0.000 No Precipitation 05/05/2019 06:24 PM 05/05/2019 06:36 PM 0.000 0.000 0.000 0.000 0.000 Not Reported Not Reported
05/15/2019 10:34 AM 53.42 47.48 41.72 66.02 43.88 66.0 Not Reported 2.01 NE 3.58 NE 1.34 N No 0.000 No Precipitation 05/05/2019 06:24 PM 05/05/2019 06:36 PM 0.000 0.000 0.000 0.000 0.000 Not Reported Not Reported
05/15/2019 10:39 AM 52.70 47.66 42.62 66.02 43.88 67.0 Not Reported 3.58 E 5.59 E 1.34 N No 0.000 No Precipitation 05/05/2019 06:24 PM 05/05/2019 06:36 PM 0.000 0.000 0.000 0.000 0.000 Not Reported Not Reported
05/15/2019 10:44 AM 52.34 47.12 42.08 66.02 43.88 69.0 Not Reported 4.03 E 2.91 E 5.59 E No 0.000 No Precipitation 05/05/2019 06:24 PM 05/05/2019 06:36 PM 0.000 0.000 0.000 0.000 0.000 Not Reported Not Reported
05/15/2019 10:49 AM 51.80 46.94 42.26 66.02 43.88 69.0 Not Reported 4.03 E 3.80 E 5.59 E No 0.000 No Precipitation 05/05/2019 06:24 PM 05/05/2019 06:36 PM 0.000 0.000 0.000 0.000 0.000 Not Reported Not Reported
05/15/2019 10:54 AM 51.26 48.02 44.78 66.02 43.88 73.0 Not Reported 3.80 E 7.16 E 4.25 E No 0.000 No Precipitation 05/05/2019 06:24 PM 05/05/2019 06:36 PM 0.000 0.000 0.000 0.000 0.000 Not Reported Not Reported
05/15/2019 10:59 AM 50.54 47.12 43.52 66.02 43.88 77.0 Not Reported 5.14 E 9.62 E 4.25 E Yes 0.085 Rain Moderate 05/15/2019 02:53 AM   0.008 0.008 0.008 0.008 0.008 Not Reported Not Reported
05/15/2019 11:04 AM 50.36 46.94 43.88 66.02 43.88 78.0 Not Reported 7.83 E 3.58 E 9.62 E No 0.000 No Precipitation 05/15/2019 02:53 AM 05/15/2019 03:01 AM 0.008 0.008 0.008 0.008 0.008 Not Reported Not Reported
05/15/2019 11:09 AM 50.54 47.30 44.24 66.02 43.88 79.0 Not Reported 3.80 E 7.16 SE 9.62 E Yes 0.043 Rain Slight 05/15/2019 03:05 AM   0.012 0.012 0.012 0.012 0.012 Not Reported Not Reported
05/15/2019 11:14 AM 50.36 47.48 44.96 66.02 43.88 80.0 Not Reported 6.71 SE 6.49 SE 9.17 E Yes 0.043 Rain Slight 05/15/2019 03:13 AM   0.016 0.016 0.016 0.016 0.016 Not Reported Not Reported
05/15/2019 11:19 AM 50.18 47.12 44.42 66.02 43.88 80.0 Not Reported 8.28 SE 9.62 SE 9.17 E No 0.000 No Precipitation 05/15/2019 03:13 AM 05/15/2019 03:18 AM 0.016 0.016 0.016 0.016 0.016 Not Reported Not Reported
05/15/2019 11:24 AM 50.00 47.30 44.78 66.02 43.88 82.0 Not Reported 9.84 SE 9.62 SE 11.63 SE No 0.000 No Precipitation 05/15/2019 03:13 AM 05/15/2019 03:18 AM 0.016 0.016 0.016 0.016 0.016 Not Reported Not Reported
05/15/2019 11:29 AM 49.82 47.48 45.32 66.02 43.88 83.0 Not Reported 8.05 E 9.40 E 11.63 SE Yes 0.043 Rain Slight 05/15/2019 03:24 AM   0.020 0.020 0.020 0.020 0.020 Not Reported Not Reported
05/15/2019 11:34 AM 50.00 47.12 44.60 66.02 43.88 83.0 Not Reported 9.62 E 5.82 SE 10.96 SE No 0.000 No Precipitation 05/15/2019 03:24 AM 05/15/2019 03:29 AM 0.020 0.020 0.020 0.020 0.020 Not Reported Not Reported
05/15/2019 11:39 AM 50.18 47.30 44.60 66.02 43.88 80.0 Not Reported 5.59 SE 4.25 E 10.96 SE No 0.000 No Precipitation 05/15/2019 03:24 AM 05/15/2019 03:29 AM 0.020 0.020 0.020 0.020 0.020 Not Reported Not Reported
05/15/2019 11:44 AM 50.36 47.84 45.50 66.02 43.88 81.0 Not Reported 2.68 SE 1.34 S 10.96 E No 0.000 No Precipitation 05/15/2019 03:24 AM 05/15/2019 03:29 AM 0.020 0.020 0.020 0.020 0.020 Not Reported Not Reported
05/15/2019 11:49 AM 50.72 47.30 44.06 66.02 43.88 78.0 Not Reported 1.79 S 1.57 SW 10.96 E No 0.000 No Precipitation 05/15/2019 03:24 AM 05/15/2019 03:29 AM 0.020 0.020 0.020 0.020 0.020 Not Reported Not Reported
05/15/2019 11:54 AM 51.08 48.02 45.14 66.02 43.88 79.0 Not Reported 4.25 S 4.25 SW 4.92 SE No 0.000 No Precipitation 05/15/2019 03:24 AM 05/15/2019 03:29 AM 0.020 0.020 0.020 0.020 0.020 Not Reported Not Reported
05/15/2019 11:59 AM 51.44 48.20 45.14 66.02 43.88 78.0 Not Reported 2.01 SW 1.34 S 4.92 SE No 0.000 No Precipitation 05/15/2019 03:24 AM 05/15/2019 03:29 AM 0.012 0.020 0.020 0.020 0.020 Not Reported Not Reported
05/15/2019 12:04 PM 51.80 48.02 44.78 66.02 43.88 76.0 Not Reported 2.01 SE 3.80 E 6.93 S No 0.000 No Precipitation 05/15/2019 03:24 AM 05/15/2019 03:29 AM 0.012 0.020 0.020 0.020 0.020 Not Reported Not Reported
05/15/2019 12:09 PM 52.52 48.38 44.42 66.02 43.88 75.0 Not Reported 3.80 E 2.46 NE 6.93 S No 0.000 No Precipitation 05/15/2019 03:24 AM 05/15/2019 03:29 AM 0.008 0.020 0.020 0.020 0.020 Not Reported Not Reported
05/15/2019 12:14 PM 53.24 49.10 45.68 66.02 43.88 76.0 Not Reported 3.80 E 3.80 E 5.37 E No 0.000 No Precipitation 05/15/2019 03:24 AM 05/15/2019 03:29 AM 0.004 0.020 0.020 0.020 0.020 Not Reported Not Reported
05/15/2019 12:19 PM 53.78 48.56 43.88 66.02 43.88 71.0 Not Reported 4.47 E 3.36 E 5.37 E No 0.000 No Precipitation 05/15/2019 03:24 AM 05/15/2019 03:29 AM 0.004 0.020 0.020 0.020 0.020 Not Reported Not Reported
05/15/2019 12:24 PM 54.32 49.28 44.78 66.02 43.88 64.0 Not Reported 4.92 S 3.36 SW 5.59 SE No 0.000 No Precipitation 05/15/2019 03:24 AM 05/15/2019 03:29 AM 0.004 0.020 0.020 0.020 0.020 Not Reported Not Reported
05/15/2019 12:29 PM 54.68 48.56 42.80 66.02 43.88 64.0 Not Reported 4.47 S 5.59 SW 5.59 SE No 0.000 No Precipitation 05/15/2019 03:24 AM 05/15/2019 03:29 AM 0.000 0.020 0.020 0.020 0.020 Not Reported Not Reported
05/15/2019 12:34 PM 54.86 48.38 42.26 66.02 43.88 58.0 Not Reported 9.17 S 8.05 S 8.72 S No 0.000 No Precipitation 05/15/2019 03:24 AM 05/15/2019 03:29 AM 0.000 0.020 0.020 0.020 0.020 Not Reported Not Reported
05/15/2019 12:39 PM 54.86 47.48 40.28 66.02 43.88 59.0 Not Reported 17.22 S 10.51 S 8.72 S No 0.000 No Precipitation 05/15/2019 03:24 AM 05/15/2019 03:29 AM 0.000 0.020 0.020 0.020 0.020 Not Reported Not Reported
05/15/2019 12:44 PM 54.68 47.48 40.64 66.02 43.88 56.0 Not Reported 11.86 S 17.00 S 19.01 S No 0.000 No Precipitation 05/15/2019 03:24 AM 05/15/2019 03:29 AM 0.000 0.020 0.020 0.020 0.020 Not Reported Not Reported
05/15/2019 12:49 PM 54.50 47.30 40.28 66.02 43.88 58.0 Not Reported 13.65 SW 11.63 SW 19.01 S No 0.000 No Precipitation 05/15/2019 03:24 AM 05/15/2019 03:29 AM 0.000 0.020 0.020 0.020 0.020 Not Reported Not Reported
05/15/2019 12:54 PM 54.50 47.66 40.82 66.02 43.88 59.0 Not Reported 9.62 SW 9.40 SW 23.04 S No 0.000 No Precipitation 05/15/2019 03:24 AM 05/15/2019 03:29 AM 0.000 0.020 0.020 0.020 0.020 Not Reported Not Reported
05/15/2019 12:59 PM 53.78 47.48 41.18 66.02 43.88 58.0 Not Reported 12.75 SW 12.08 SW 23.04 S No 0.000 No Precipitation 05/15/2019 03:24 AM 05/15/2019 03:29 AM 0.000 0.020 0.020 0.020 0.020 Not Reported Not Reported
05/15/2019 01:04 PM 53.42 48.02 42.98 66.02 43.88 63.0 Not Reported 11.63 SW 13.42 SW 14.54 SW No 0.000 No Precipitation 05/15/2019 03:24 AM 05/15/2019 03:29 AM 0.000 0.020 0.020 0.020 0.020 Not Reported Not Reported
05/15/2019 01:09 PM 53.42 47.30 41.18 66.02 43.88 63.0 Not Reported 12.30 SW 10.51 SW 14.54 SW No 0.000 No Precipitation 05/15/2019 03:24 AM 05/15/2019 03:29 AM 0.000 0.020 0.020 0.020 0.020 Not Reported Not Reported
05/15/2019 01:14 PM 53.78 47.12 40.46 66.02 43.88 60.0 Not Reported 9.40 SW 12.08 S 17.90 SW No 0.000 No Precipitation 05/15/2019 03:24 AM 05/15/2019 03:29 AM 0.000 0.020 0.020 0.020 0.020 Not Reported Not Reported
05/15/2019 01:19 PM 53.60 46.58 39.38 66.02 43.88 60.0 Not Reported 8.28 S 4.92 S 17.90 SW No 0.000 No Precipitation 05/15/2019 03:24 AM 05/15/2019 03:29 AM 0.000 0.020 0.020 0.020 0.020 Not Reported Not Reported
05/15/2019 01:24 PM 53.96 47.66 41.54 66.02 43.88 58.0 Not Reported 5.82 S 8.50 SW 12.08 SW No 0.000 No Precipitation 05/15/2019 03:24 AM 05/15/2019 03:29 AM 0.000 0.020 0.020 0.020 0.020 Not Reported Not Reported
05/15/2019 01:29 PM 53.96 47.30 40.46 66.02 43.88 59.0 Not Reported 9.62 SE 10.07 S 12.08 SW No 0.000 No Precipitation 05/15/2019 03:24 AM 05/15/2019 03:29 AM 0.000 0.020 0.020 0.020 0.020 Not Reported Not Reported
05/15/2019 01:34 PM 54.14 46.76 39.20 66.02 43.88 58.0 Not Reported 14.76 S 12.97 S 12.97 S No 0.000 No Precipitation 05/15/2019 03:24 AM 05/15/2019 03:29 AM 0.000 0.020 0.020 0.020 0.020 Not Reported Not Reported
05/15/2019 01:39 PM 54.14 46.76 39.20 66.02 43.88 60.0 Not Reported 16.33 S 13.87 S 12.97 S No 0.000 No Precipitation 05/15/2019 03:24 AM 05/15/2019 03:29 AM 0.000 0.020 0.020 0.020 0.020 Not Reported Not Reported
05/15/2019 01:44 PM 54.32 47.30 40.10 66.02 43.88 55.0 Not Reported 14.76 S 18.57 S 18.79 SW No 0.000 No Precipitation 05/15/2019 03:24 AM 05/15/2019 03:29 AM 0.000 0.020 0.020 0.020 0.020 Not Reported Not Reported
05/15/2019 01:49 PM 55.22 47.30 39.38 66.02 43.88 56.0 Not Reported 7.61 S 5.37 S 18.79 SW No 0.000 No Precipitation 05/15/2019 03:24 AM 05/15/2019 03:29 AM 0.000 0.020 0.020 0.020 0.020 Not Reported Not Reported
05/15/2019 01:54 PM 55.58 47.66 40.10 66.02 43.88 53.0 Not Reported 9.84 S 16.11 SW 18.57 S No 0.000 No Precipitation 05/15/2019 03:24 AM 05/15/2019 03:29 AM 0.000 0.020 0.020 0.020 0.020 Not Reported Not Reported
05/15/2019 01:59 PM 55.40 47.66 39.74 66.02 43.88 55.0 Not Reported 12.53 S 14.09 S 18.57 S No 0.000 No Precipitation 05/15/2019 03:24 AM 05/15/2019 03:29 AM 0.000 0.012 0.020 0.020 0.020 Not Reported Not Reported
05/15/2019 02:04 PM 55.94 48.20 40.82 66.02 43.88 57.0 Not Reported 13.65 SW 10.96 S 23.49 SW No 0.000 No Precipitation 05/15/2019 03:24 AM 05/15/2019 03:29 AM 0.000 0.012 0.020 0.020 0.020 Not Reported Not Reported
05/15/2019 02:09 PM 55.94 48.38 40.64 66.02 43.88 56.0 Not Reported 13.87 S 15.66 S 23.49 SW No 0.000 No Precipitation 05/15/2019 03:24 AM 05/15/2019 03:29 AM 0.000 0.008 0.020 0.020 0.020 Not Reported Not Reported
05/15/2019 02:14 PM 56.48 48.38 40.28 66.02 43.88 56.0 Not Reported 12.08 S 11.63 S 19.91 S No 0.000 No Precipitation 05/15/2019 03:24 AM 05/15/2019 03:29 AM 0.000 0.004 0.020 0.020 0.020 Not Reported Not Reported
05/15/2019 02:19 PM 56.48 48.74 41.00 66.02 43.88 53.0 Not Reported 11.41 S 18.12 SW 19.91 S No 0.000 No Precipitation 05/15/2019 03:24 AM 05/15/2019 03:29 AM 0.000 0.004 0.020 0.020 0.020 Not Reported Not Reported
05/15/2019 02:24 PM 56.84 48.74 40.82 66.02 43.88 53.0 Not Reported 14.99 S 20.36 S 18.12 SW No 0.000 No Precipitation 05/15/2019 03:24 AM 05/15/2019 03:29 AM 0.000 0.004 0.020 0.020 0.020 Not Reported Not Reported
05/15/2019 02:29 PM 56.30 48.02 39.92 66.02 43.88 55.0 Not Reported 13.87 SW 7.83 S 18.12 SW No 0.000 No Precipitation 05/15/2019 03:24 AM 05/15/2019 03:29 AM 0.000 0.000 0.020 0.020 0.020 Not Reported Not Reported
05/15/2019 02:34 PM 57.74 48.74 39.74 66.02 43.88 52.0 Not Reported 14.76 SW 12.53 SW 20.36 S No 0.000 No Precipitation 05/15/2019 03:24 AM 05/15/2019 03:29 AM 0.000 0.000 0.020 0.020 0.020 Not Reported Not Reported
05/15/2019 02:39 PM 57.02 48.20 39.74 66.02 43.88 50.0 Not Reported 10.51 SW 12.97 S 20.36 S No 0.000 No Precipitation 05/15/2019 03:24 AM 05/15/2019 03:29 AM 0.000 0.000 0.020 0.020 0.020 Not Reported Not Reported
05/15/2019 02:44 PM 57.56 48.56 39.74 66.02 43.88 49.0 Not Reported 9.62 SW 10.29 S 17.22 SW No 0.000 No Precipitation 05/15/2019 03:24 AM 05/15/2019 03:29 AM 0.000 0.000 0.020 0.020 0.020 Not Reported Not Reported
05/15/2019 02:49 PM 58.10 49.82 41.90 66.02 43.88 51.0 Not Reported 10.51 S 16.78 SE 17.22 SW No 0.000 No Precipitation 05/15/2019 03:24 AM 05/15/2019 03:29 AM 0.000 0.000 0.020 0.020 0.020 Not Reported Not Reported
05/15/2019 02:54 PM 57.74 48.74 39.74 66.02 43.88 52.0 Not Reported 15.88 S 12.30 S 16.78 SE No 0.000 No Precipitation 05/15/2019 03:24 AM 05/15/2019 03:29 AM 0.000 0.000 0.020 0.020 0.020 Not Reported Not Reported
05/15/2019 02:59 PM 57.38 48.38 39.74 66.02 43.88 52.0 Not Reported 12.97 S 21.47 S 16.78 SE No 0.000 No Precipitation 05/15/2019 03:24 AM 05/15/2019 03:29 AM 0.000 0.000 0.020 0.020 0.020 Not Reported Not Reported
05/15/2019 03:04 PM 57.20 48.02 39.02 66.02 43.88 49.0 Not Reported 14.54 S 12.08 SW 24.16 S No 0.000 No Precipitation 05/15/2019 03:24 AM 05/15/2019 03:29 AM 0.000 0.000 0.020 0.020 0.020 Not Reported Not Reported
05/15/2019 03:09 PM 57.02 47.30 37.04 66.02 43.88 50.0 Not Reported 14.54 S 12.97 S 24.16 S No 0.000 No Precipitation 05/15/2019 03:24 AM 05/15/2019 03:29 AM 0.000 0.000 0.020 0.020 0.020 Not Reported Not Reported
05/15/2019 03:14 PM 56.84 47.84 38.66 66.02 43.88 49.0 Not Reported 13.20 S 16.11 S 20.58 S No 0.000 No Precipitation 05/15/2019 03:24 AM 05/15/2019 03:29 AM 0.000 0.000 0.020 0.020 0.020 Not Reported Not Reported
05/15/2019 03:19 PM 57.20 48.38 39.74 66.02 43.88 55.0 Not Reported 8.50 S 10.07 S 20.58 S No 0.000 No Precipitation 05/15/2019 03:24 AM 05/15/2019 03:29 AM 0.000 0.000 0.020 0.020 0.020 Not Reported Not Reported
05/15/2019 03:24 PM 56.84 47.66 38.30 66.02 43.88 51.0 Not Reported 8.28 SW 10.74 S 18.34 S No 0.000 No Precipitation 05/15/2019 03:24 AM 05/15/2019 03:29 AM 0.000 0.000 0.020 0.020 0.020 Not Reported Not Reported
05/15/2019 03:29 PM 56.30 47.66 38.66 66.02 43.88 54.0 Not Reported 14.54 S 14.32 SW 18.34 S No 0.000 No Precipitation 05/15/2019 03:24 AM 05/15/2019 03:29 AM 0.000 0.000 0.020 0.020 0.020 Not Reported Not Reported
05/15/2019 03:34 PM 56.30 47.48 38.12 66.02 43.88 51.0 Not Reported 16.33 S 14.76 S 20.58 S No 0.000 No Precipitation 05/15/2019 03:24 AM 05/15/2019 03:29 AM 0.000 0.000 0.020 0.020 0.020 Not Reported Not Reported
05/15/2019 03:39 PM 56.30 48.20 39.74 66.02 43.88 53.0 Not Reported 10.74 S 11.18 S 20.58 S No 0.000 No Precipitation 05/15/2019 03:24 AM 05/15/2019 03:29 AM 0.000 0.000 0.020 0.020 0.020 Not Reported Not Reported
05/15/2019 03:44 PM 56.12 48.02 39.74 66.02 43.88 53.0 Not Reported 14.76 SW 11.86 S 22.15 SW No 0.000 No Precipitation 05/15/2019 03:24 AM 05/15/2019 03:29 AM 0.000 0.000 0.020 0.020 0.020 Not Reported Not Reported
05/15/2019 03:49 PM 56.12 47.48 38.48 66.02 43.88 52.0 Not Reported 17.00 SE 14.99 S 22.15 SW No 0.000 No Precipitation 05/15/2019 03:24 AM 05/15/2019 03:29 AM 0.000 0.000 0.020 0.020 0.020 Not Reported Not Reported
05/15/2019 03:54 PM 56.12 47.30 38.12 66.02 43.88 51.0 Not Reported 19.46 S 16.33 S 19.69 SE No 0.000 No Precipitation 05/15/2019 03:24 AM 05/15/2019 03:29 AM 0.000 0.000 0.020 0.020 0.020 Not Reported Not Reported
05/15/2019 03:59 PM 56.30 47.12 37.40 66.02 43.88 53.0 Not Reported 19.91 S 16.33 S 19.69 SE No 0.000 No Precipitation 05/15/2019 03:24 AM 05/15/2019 03:29 AM 0.000 0.000 0.020 0.020 0.020 Not Reported Not Reported
05/15/2019 04:04 PM 56.30 46.40 35.60 66.02 43.88 46.0 Not Reported 21.92 S 8.95 SW 21.70 SE No 0.000 No Precipitation 05/15/2019 03:24 AM 05/15/2019 03:29 AM 0.000 0.000 0.020 0.020 0.020 Not Reported Not Reported
05/15/2019 04:09 PM 57.74 48.02 38.48 66.02 43.88 48.0 Not Reported 14.09 S 11.86 S 21.70 SE No 0.000 No Precipitation 05/15/2019 03:24 AM 05/15/2019 03:29 AM 0.000 0.000 0.020 0.020 0.020 Not Reported Not Reported
05/15/2019 04:14 PM 58.10 47.66 36.86 66.02 43.88 46.0 Not Reported 13.87 S 15.88 S 24.83 S No 0.000 No Precipitation 05/15/2019 03:24 AM 05/15/2019 03:29 AM 0.000 0.000 0.020 0.020 0.020 Not Reported Not Reported
05/15/2019 04:19 PM 57.38 46.94 35.78 66.02 43.88 47.0 Not Reported 18.57 S 12.75 S 24.83 S No 0.000 No Precipitation 05/15/2019 03:24 AM 05/15/2019 03:29 AM 0.000 0.000 0.020 0.020 0.020 Not Reported Not Reported
05/15/2019 04:24 PM 58.46 48.74 39.02 66.02 43.88 44.0 Not Reported 18.34 SE 16.78 S 24.61 S No 0.000 No Precipitation 05/15/2019 03:24 AM 05/15/2019 03:29 AM 0.000 0.000 0.020 0.020 0.020 Not Reported Not Reported
05/15/2019 04:29 PM 58.64 48.20 36.50 66.02 43.88 43.0 Not Reported 19.01 S 23.26 S 24.61 S No 0.000 No Precipitation 05/15/2019 03:24 AM 05/15/2019 03:29 AM 0.000 0.000 0.020 0.020 0.020 Not Reported Not Reported
05/15/2019 04:34 PM 58.46 47.84 36.68 66.02 43.88 47.0 Not Reported 14.99 S 14.76 S 24.38 S No 0.000 No Precipitation 05/15/2019 03:24 AM 05/15/2019 03:29 AM 0.000 0.000 0.020 0.020 0.020 Not Reported Not Reported
05/15/2019 04:39 PM 59.18 48.38 37.22 66.02 43.88 45.0 Not Reported 13.65 SW 12.97 S 24.38 S No 0.000 No Precipitation 05/15/2019 03:24 AM 05/15/2019 03:29 AM 0.000 0.000 0.020 0.020 0.020 Not Reported Not Reported
05/15/2019 04:44 PM 58.10 47.84 36.86 66.02 43.88 42.0 Not Reported 17.67 S 17.90 SE 22.37 SW No 0.000 No Precipitation 05/15/2019 03:24 AM 05/15/2019 03:29 AM 0.000 0.000 0.020 0.020 0.020 Not Reported Not Reported
05/15/2019 04:49 PM 57.20 46.94 35.42 66.02 43.88 44.0 Not Reported 14.76 S 17.90 SE 22.37 SW No 0.000 No Precipitation 05/15/2019 03:24 AM 05/15/2019 03:29 AM 0.000 0.000 0.020 0.020 0.020 Not Reported Not Reported
05/15/2019 04:54 PM 57.02 47.66 37.94 66.02 43.88 47.0 Not Reported 13.20 S 14.54 S 19.91 S No 0.000 No Precipitation 05/15/2019 03:24 AM 05/15/2019 03:29 AM 0.000 0.000 0.020 0.020 0.020 Not Reported Not Reported
05/15/2019 04:59 PM 57.02 48.02 38.30 66.02 43.88 47.0 Not Reported 16.78 S 17.22 S 19.91 S No 0.000 No Precipitation 05/15/2019 03:24 AM 05/15/2019 03:29 AM 0.000 0.000 0.012 0.020 0.020 Not Reported Not Reported
05/15/2019 05:04 PM 57.74 47.84 37.58 66.02 43.88 46.0 Not Reported 10.96 SW 18.79 SW 21.03 S No 0.000 No Precipitation 05/15/2019 03:24 AM 05/15/2019 03:29 AM 0.000 0.000 0.012 0.020 0.020 Not Reported Not Reported
05/15/2019 05:09 PM 57.38 47.66 37.40 66.02 43.88 50.0 Not Reported 13.42 S 10.96 S 21.03 S No 0.000 No Precipitation 05/15/2019 03:24 AM 05/15/2019 03:29 AM 0.000 0.000 0.008 0.020 0.020 Not Reported Not Reported
05/15/2019 05:14 PM 58.28 48.02 37.76 66.02 43.88 50.0 Not Reported 11.63 S 16.11 SW 19.01 SW No 0.000 No Precipitation 05/15/2019 03:24 AM 05/15/2019 03:29 AM 0.000 0.000 0.004 0.020 0.020 Not Reported Not Reported
05/15/2019 05:19 PM 59.54 48.92 38.84 66.02 43.88 50.0 Not Reported 11.18 S 12.30 SW 19.01 SW No 0.000 No Precipitation 05/15/2019 03:24 AM 05/15/2019 03:29 AM 0.000 0.000 0.004 0.020 0.020 Not Reported Not Reported
05/15/2019 05:24 PM 58.46 48.56 38.84 66.02 43.88 44.0 Not Reported 17.90 S 13.65 S 19.46 S No 0.000 No Precipitation 05/15/2019 03:24 AM 05/15/2019 03:29 AM 0.000 0.000 0.004 0.020 0.020 Not Reported Not Reported
05/15/2019 05:29 PM 59.36 49.10 39.02 66.02 43.88 47.0 Not Reported 14.76 S 10.96 S 19.46 S No 0.000 No Precipitation 05/15/2019 03:24 AM 05/15/2019 03:29 AM 0.000 0.000 0.000 0.020 0.020 Not Reported Not Reported
05/15/2019 05:34 PM 59.00 49.46 40.46 66.02 43.88 50.0 Not Reported 13.42 S 11.86 SE 23.94 S No 0.000 No Precipitation 05/15/2019 03:24 AM 05/15/2019 03:29 AM 0.000 0.000 0.000 0.020 0.020 Not Reported Not Reported
05/15/2019 05:39 PM 59.00 48.56 37.94 66.02 43.88 47.0 Not Reported 6.71 S 10.29 S 23.94 S No 0.000 No Precipitation 05/15/2019 03:24 AM 05/15/2019 03:29 AM 0.000 0.000 0.000 0.020 0.020 Not Reported Not Reported
05/15/2019 05:44 PM 58.64 49.46 39.74 66.02 43.88 43.0 Not Reported 14.09 SW 15.88 S 16.78 S No 0.000 No Precipitation 05/15/2019 03:24 AM 05/15/2019 03:29 AM 0.000 0.000 0.000 0.020 0.020 Not Reported Not Reported
05/15/2019 05:49 PM 58.82 48.74 38.66 66.02 43.88 46.0 Not Reported 15.43 SW 16.78 SW 16.78 S No 0.000 No Precipitation 05/15/2019 03:24 AM 05/15/2019 03:29 AM 0.000 0.000 0.000 0.020 0.020 Not Reported Not Reported
05/15/2019 05:54 PM 58.64 48.56 38.84 66.02 43.88 44.0 Not Reported 15.88 S 14.09 SW 23.94 S No 0.000 No Precipitation 05/15/2019 03:24 AM 05/15/2019 03:29 AM 0.000 0.000 0.000 0.020 0.020 Not Reported Not Reported
05/15/2019 05:59 PM 59.18 48.74 38.30 66.02 43.88 43.0 Not Reported 12.75 SW 15.66 S 23.94 S No 0.000 No Precipitation 05/15/2019 03:24 AM 05/15/2019 03:29 AM 0.000 0.000 0.000 0.020 0.020 Not Reported Not Reported
05/15/2019 06:04 PM 58.64 48.92 39.02 66.02 43.88 45.0 Not Reported 19.91 SW 19.46 S 18.79 S No 0.000 No Precipitation 05/15/2019 03:24 AM 05/15/2019 03:29 AM 0.000 0.000 0.000 0.020 0.020 Not Reported Not Reported
05/15/2019 06:09 PM 58.64 48.56 38.66 66.02 43.88 45.0 Not Reported 19.24 SW 14.54 S 18.79 S No 0.000 No Precipitation 05/15/2019 03:24 AM 05/15/2019 03:29 AM 0.000 0.000 0.000 0.020 0.020 Not Reported Not Reported
05/15/2019 06:14 PM 58.64 48.74 38.30 66.02 43.88 44.0 Not Reported 15.66 S 17.22 S 23.26 SW No 0.000 No Precipitation 05/15/2019 03:24 AM 05/15/2019 03:29 AM 0.000 0.000 0.000 0.020 0.020 Not Reported Not Reported
05/15/2019 06:19 PM 58.28 48.38 38.12 66.02 43.88 47.0 Not Reported 14.76 SW 19.46 SW 23.26 SW No 0.000 No Precipitation 05/15/2019 03:24 AM 05/15/2019 03:29 AM 0.000 0.000 0.000 0.020 0.020 Not Reported Not Reported
05/15/2019 06:24 PM 58.10 48.74 39.38 66.02 43.88 45.0 Not Reported 14.99 SW 18.57 SW 19.46 SW No 0.000 No Precipitation 05/15/2019 03:24 AM 05/15/2019 03:29 AM 0.000 0.000 0.000 0.020 0.020 Not Reported Not Reported
05/15/2019 06:29 PM 56.84 47.48 37.76 66.02 43.88 47.0 Not Reported 16.55 S 16.11 S 19.46 SW No 0.000 No Precipitation 05/15/2019 03:24 AM 05/15/2019 03:29 AM 0.000 0.000 0.000 0.020 0.020 Not Reported Not Reported
05/15/2019 06:34 PM 57.02 47.12 36.50 66.02 43.88 46.0 Not Reported 12.53 SW 13.65 SW 18.79 SW No 0.000 No Precipitation 05/15/2019 03:24 AM 05/15/2019 03:29 AM 0.000 0.000 0.000 0.020 0.020 Not Reported Not Reported
05/15/2019 06:39 PM 57.02 47.30 37.04 66.02 43.88 49.0 Not Reported 11.86 SW 18.57 SW 18.79 SW No 0.000 No Precipitation 05/15/2019 03:24 AM 05/15/2019 03:29 AM 0.000 0.000 0.000 0.020 0.020 Not Reported Not Reported
05/15/2019 06:44 PM 56.66 47.12 37.40 66.02 43.88 48.0 Not Reported 14.76 SW 12.97 SW 19.24 SW No 0.000 No Precipitation 05/15/2019 03:24 AM 05/15/2019 03:29 AM 0.000 0.000 0.000 0.020 0.020 Not Reported Not Reported
05/15/2019 06:49 PM 56.30 46.94 36.86 66.02 43.88 48.0 Not Reported 18.79 S 12.97 SW 19.24 SW No 0.000 No Precipitation 05/15/2019 03:24 AM 05/15/2019 03:29 AM 0.000 0.000 0.000 0.020 0.020 Not Reported Not Reported
05/15/2019 06:54 PM 57.20 46.94 35.96 66.02 43.88 47.0 Not Reported 12.75 S 16.78 S 20.36 S No 0.000 No Precipitation 05/15/2019 03:24 AM 05/15/2019 03:29 AM 0.000 0.000 0.000 0.020 0.020 Not Reported Not Reported
05/15/2019 06:59 PM 57.02 46.76 35.60 66.02 43.88 43.0 Not Reported 15.88 SW 19.46 S 20.36 S No 0.000 No Precipitation 05/15/2019 03:24 AM 05/15/2019 03:29 AM 0.000 0.000 0.000 0.020 0.020 Not Reported Not Reported
05/15/2019 07:04 PM 56.48 46.22 34.88 66.02 43.88 44.0 Not Reported 17.00 SW 17.90 S 20.80 S No 0.000 No Precipitation 05/15/2019 03:24 AM 05/15/2019 03:29 AM 0.000 0.000 0.000 0.020 0.020 Not Reported Not Reported
05/15/2019 07:09 PM 57.20 47.12 36.50 66.02 43.88 45.0 Not Reported 11.63 S 11.63 S 20.80 S No 0.000 No Precipitation 05/15/2019 03:24 AM 05/15/2019 03:29 AM 0.000 0.000 0.000 0.020 0.020 Not Reported Not Reported
05/15/2019 07:14 PM 56.84 46.40 34.88 66.02 43.88 42.0 Not Reported 13.65 S 12.97 S 18.57 SW No 0.000 No Precipitation 05/15/2019 03:24 AM 05/15/2019 03:29 AM 0.000 0.000 0.000 0.020 0.020 Not Reported Not Reported
05/15/2019 07:19 PM 56.48 46.94 36.14 66.02 43.88 45.0 Not Reported 11.63 S 11.18 SE 18.57 SW No 0.000 No Precipitation 05/15/2019 03:24 AM 05/15/2019 03:29 AM 0.000 0.000 0.000 0.020 0.020 Not Reported Not Reported
05/15/2019 07:24 PM 56.30 46.04 34.34 66.02 43.88 40.0 Not Reported 14.54 S 5.82 S 18.57 S No 0.000 No Precipitation 05/15/2019 03:24 AM 05/15/2019 03:29 AM 0.000 0.000 0.000 0.020 0.020 Not Reported Not Reported
05/15/2019 07:29 PM 56.84 45.68 32.72 66.02 43.88 41.0 Not Reported 7.16 SE 8.05 S 18.57 S No 0.000 No Precipitation 05/15/2019 03:24 AM 05/15/2019 03:29 AM 0.000 0.000 0.000 0.020 0.020 Not Reported Not Reported
05/15/2019 07:34 PM 56.48 46.04 33.98 66.02 43.88 42.0 Not Reported 8.50 SE 13.20 S 18.12 S No 0.000 No Precipitation 05/15/2019 03:24 AM 05/15/2019 03:29 AM 0.000 0.000 0.000 0.020 0.020 Not Reported Not Reported
05/15/2019 07:39 PM 56.48 46.04 34.52 66.02 43.88 42.0 Not Reported 10.96 S 13.42 S 18.12 S No 0.000 No Precipitation 05/15/2019 03:24 AM 05/15/2019 03:29 AM 0.000 0.000 0.000 0.020 0.020 Not Reported Not Reported
05/15/2019 07:44 PM 56.84 46.22 34.16 66.02 43.88 40.0 Not Reported 10.29 SE 7.16 S 13.87 S No 0.000 No Precipitation 05/15/2019 03:24 AM 05/15/2019 03:29 AM 0.000 0.000 0.000 0.020 0.020 Not Reported Not Reported
05/15/2019 07:49 PM 56.66 46.04 33.80 66.02 43.88 42.0 Not Reported 12.97 S 8.95 S 13.87 S No 0.000 No Precipitation 05/15/2019 03:24 AM 05/15/2019 03:29 AM 0.000 0.000 0.000 0.020 0.020 Not Reported Not Reported
05/15/2019 07:54 PM 56.30 45.50 32.72 66.02 43.88 41.0 Not Reported 10.51 S 13.65 S 16.55 S No 0.000 No Precipitation 05/15/2019 03:24 AM 05/15/2019 03:29 AM 0.000 0.000 0.000 0.020 0.020 Not Reported Not Reported
05/15/2019 07:59 PM 56.12 45.68 33.62 66.02 43.88 42.0 Not Reported 11.63 S 11.18 S 16.55 S No 0.000 No Precipitation 05/15/2019 03:24 AM 05/15/2019 03:29 AM 0.000 0.000 0.000 0.020 0.020 Not Reported Not Reported
05/15/2019 08:04 PM 56.30 45.32 32.18 66.02 43.88 38.0 Not Reported 10.07 SW 11.41 SE 16.33 S No 0.000 No Precipitation 05/15/2019 03:24 AM 05/15/2019 03:29 AM 0.000 0.000 0.000 0.020 0.020 Not Reported Not Reported
05/15/2019 08:09 PM 56.48 45.68 33.26 66.02 43.88 38.0 Not Reported 6.71 S 9.17 E 16.33 S No 0.000 No Precipitation 05/15/2019 03:24 AM 05/15/2019 03:29 AM 0.000 0.000 0.000 0.020 0.020 Not Reported Not Reported
05/15/2019 08:14 PM 56.30 45.14 32.00 66.02 43.88 39.0 Not Reported 8.28 S 3.80 S 13.20 S No 0.000 No Precipitation 05/15/2019 03:24 AM 05/15/2019 03:29 AM 0.000 0.000 0.000 0.020 0.020 Not Reported Not Reported
05/15/2019 08:19 PM 56.66 45.32 31.82 66.02 43.88 38.0 Not Reported 8.50 E 6.49 SE 13.20 S No 0.000 No Precipitation 05/15/2019 03:24 AM 05/15/2019 03:29 AM 0.000 0.000 0.000 0.020 0.020 Not Reported Not Reported
05/15/2019 08:24 PM 56.48 45.50 32.72 66.02 43.88 38.0 Not Reported 9.40 SE 6.93 S 11.18 SE No 0.000 No Precipitation 05/15/2019 03:24 AM 05/15/2019 03:29 AM 0.000 0.000 0.000 0.020 0.020 Not Reported Not Reported
05/15/2019 08:29 PM 56.48 45.50 32.36 66.02 43.88 39.0 Not Reported 7.61 SE 10.96 S 11.18 SE No 0.000 No Precipitation 05/15/2019 03:24 AM 05/15/2019 03:29 AM 0.000 0.000 0.000 0.020 0.020 Not Reported Not Reported
05/15/2019 08:34 PM 56.30 45.50 33.08 66.02 43.88 41.0 Not Reported 9.62 S 9.84 S 11.86 S No 0.000 No Precipitation 05/15/2019 03:24 AM 05/15/2019 03:29 AM 0.000 0.000 0.000 0.020 0.020 Not Reported Not Reported
05/15/2019 08:39 PM 56.66 45.68 32.54 66.02 43.88 40.0 Not Reported 8.28 SE 6.93 S 11.86 S No 0.000 No Precipitation 05/15/2019 03:24 AM 05/15/2019 03:29 AM 0.000 0.000 0.000 0.020 0.020 Not Reported Not Reported
05/15/2019 08:44 PM 56.48 45.32 32.00 66.02 43.88 40.0 Not Reported 6.04 S 2.46 S 11.86 S No 0.000 No Precipitation 05/15/2019 03:24 AM 05/15/2019 03:29 AM 0.000 0.000 0.000 0.020 0.020 Not Reported Not Reported
05/15/2019 08:49 PM 56.66 45.50 32.36 66.02 43.88 39.0 Not Reported 6.71 S 8.05 S 11.86 S No 0.000 No Precipitation 05/15/2019 03:24 AM 05/15/2019 03:29 AM 0.000 0.000 0.000 0.020 0.020 Not Reported Not Reported
05/15/2019 08:54 PM 55.94 45.50 33.44 66.02 43.88 41.0 Not Reported 7.61 S 6.04 SE 10.74 S No 0.000 No Precipitation 05/15/2019 03:24 AM 05/15/2019 03:29 AM 0.000 0.000 0.000 0.020 0.020 Not Reported Not Reported
05/15/2019 08:59 PM 55.76 45.32 33.26 66.02 43.88 41.0 Not Reported 9.40 S 8.50 S 10.74 S No 0.000 No Precipitation 05/15/2019 03:24 AM 05/15/2019 03:29 AM 0.000 0.000 0.000 0.020 0.020 Not Reported Not Reported
05/15/2019 09:04 PM 56.12 45.32 32.36 66.02 43.88 40.0 Not Reported 8.50 S 8.50 S 12.53 S No 0.000 No Precipitation 05/15/2019 03:24 AM 05/15/2019 03:29 AM 0.000 0.000 0.000 0.020 0.020 Not Reported Not Reported
05/15/2019 09:09 PM 55.94 45.14 32.54 66.02 43.88 41.0 Not Reported 10.74 S 8.05 S 12.53 S No 0.000 No Precipitation 05/15/2019 03:24 AM 05/15/2019 03:29 AM 0.000 0.000 0.000 0.020 0.020 Not Reported Not Reported
05/15/2019 09:14 PM 55.76 45.32 33.08 66.02 43.88 41.0 Not Reported 11.18 S 16.78 S 13.87 S No 0.000 No Precipitation 05/15/2019 03:24 AM 05/15/2019 03:29 AM 0.000 0.000 0.000 0.020 0.020 Not Reported Not Reported
05/15/2019 09:19 PM 55.58 45.32 33.44 66.02 43.88 43.0 Not Reported 10.96 S 7.38 S 13.87 S No 0.000 No Precipitation 05/15/2019 03:24 AM 05/15/2019 03:29 AM 0.000 0.000 0.000 0.020 0.020 Not Reported Not Reported
05/15/2019 09:24 PM 55.94 45.32 32.54 66.02 43.88 40.0 Not Reported 14.99 S 14.76 S 16.78 S No 0.000 No Precipitation 05/15/2019 03:24 AM 05/15/2019 03:29 AM 0.000 0.000 0.000 0.020 0.020 Not Reported Not Reported
05/15/2019 09:29 PM 55.94 45.14 32.54 66.02 43.88 41.0 Not Reported 14.99 S 12.53 S 16.78 S No 0.000 No Precipitation 05/15/2019 03:24 AM 05/15/2019 03:29 AM 0.000 0.000 0.000 0.020 0.020 Not Reported Not Reported
05/15/2019 09:34 PM 55.40 45.14 33.08 66.02 43.88 42.0 Not Reported 12.53 S 12.08 SE 17.22 S No 0.000 No Precipitation 05/15/2019 03:24 AM 05/15/2019 03:29 AM 0.000 0.000 0.000 0.020 0.020 Not Reported Not Reported
05/15/2019 09:39 PM 55.22 45.32 33.98 66.02 43.88 43.0 Not Reported 9.17 S 10.07 S 17.22 S No 0.000 No Precipitation 05/15/2019 03:24 AM 05/15/2019 03:29 AM 0.000 0.000 0.000 0.020 0.020 Not Reported Not Reported
05/15/2019 09:44 PM 55.40 44.96 32.54 66.02 43.88 42.0 Not Reported 12.53 S 11.86 S 14.32 SE No 0.000 No Precipitation 05/15/2019 03:24 AM 05/15/2019 03:29 AM 0.000 0.000 0.000 0.020 0.020 Not Reported Not Reported
05/15/2019 09:49 PM 55.22 45.14 33.44 66.02 43.88 43.0 Not Reported 11.63 S 10.51 S 14.32 SE No 0.000 No Precipitation 05/15/2019 03:24 AM 05/15/2019 03:29 AM 0.000 0.000 0.000 0.020 0.020 Not Reported Not Reported
05/15/2019 09:54 PM 55.22 45.14 33.26 66.02 43.88 42.0 Not Reported 15.66 S 10.51 SE 15.66 S No 0.000 No Precipitation 05/15/2019 03:24 AM 05/15/2019 03:29 AM 0.000 0.000 0.000 0.020 0.020 Not Reported Not Reported
05/15/2019 09:59 PM 55.40 44.96 33.26 66.02 43.88 43.0 Not Reported 8.50 S 16.33 S 15.66 S No 0.000 No Precipitation 05/15/2019 03:24 AM 05/15/2019 03:29 AM 0.000 0.000 0.000 0.020 0.020 Not Reported Not Reported
05/15/2019 10:04 PM 55.58 45.32 33.62 66.02 43.88 42.0 Not Reported 11.41 S 9.62 S 18.57 SW No 0.000 No Precipitation 05/15/2019 03:24 AM 05/15/2019 03:29 AM 0.000 0.000 0.000 0.020 0.020 Not Reported Not Reported
05/15/2019 10:09 PM 55.22 45.32 33.98 66.02 43.88 43.0 Not Reported 8.50 S 10.29 S 18.57 SW No 0.000 No Precipitation 05/15/2019 03:24 AM 05/15/2019 03:29 AM 0.000 0.000 0.000 0.020 0.020 Not Reported Not Reported
05/15/2019 10:14 PM 55.04 45.32 34.16 66.02 43.88 44.0 Not Reported 8.05 S 8.28 S 14.54 S No 0.000 No Precipitation 05/15/2019 03:24 AM 05/15/2019 03:29 AM 0.000 0.000 0.000 0.020 0.020 Not Reported Not Reported
05/15/2019 10:19 PM 55.22 45.32 33.80 66.02 43.88 43.0 Not Reported 7.16 SE 8.50 S 14.54 S No 0.000 No Precipitation 05/15/2019 03:24 AM 05/15/2019 03:29 AM 0.000 0.000 0.000 0.020 0.020 Not Reported Not Reported
05/15/2019 10:24 PM 55.22 45.32 34.16 66.02 43.88 45.0 Not Reported 7.16 S 5.59 S 9.62 SE No 0.000 No Precipitation 05/15/2019 03:24 AM 05/15/2019 03:29 AM 0.000 0.000 0.000 0.020 0.020 Not Reported Not Reported
05/15/2019 10:29 PM 55.40 45.32 33.80 66.02 43.88 43.0 Not Reported 8.72 S 10.07 S 9.62 SE No 0.000 No Precipitation 05/15/2019 03:24 AM 05/15/2019 03:29 AM 0.000 0.000 0.000 0.020 0.020 Not Reported Not Reported
05/15/2019 10:34 PM 55.04 45.32 34.16 66.02 43.88 44.0 Not Reported 8.95 S 10.07 SE 12.97 SE No 0.000 No Precipitation 05/15/2019 03:24 AM 05/15/2019 03:29 AM 0.000 0.000 0.000 0.020 0.020 Not Reported Not Reported
05/15/2019 10:39 PM 55.04 45.32 33.98 66.02 43.88 45.0 Not Reported 6.04 S 4.25 S 12.97 SE No 0.000 No Precipitation 05/15/2019 03:24 AM 05/15/2019 03:29 AM 0.000 0.000 0.000 0.020 0.020 Not Reported Not Reported
05/15/2019 10:44 PM 54.50 45.32 34.88 66.02 43.88 46.0 Not Reported 5.82 S 7.38 S 11.63 S No 0.000 No Precipitation 05/15/2019 03:24 AM 05/15/2019 03:29 AM 0.000 0.000 0.000 0.020 0.020 Not Reported Not Reported
05/15/2019 10:49 PM 54.32 45.32 35.06 66.02 43.88 48.0 Not Reported 8.28 SW 6.71 S 11.63 S No 0.000 No Precipitation 05/15/2019 03:24 AM 05/15/2019 03:29 AM 0.000 0.000 0.000 0.020 0.020 Not Reported Not Reported
05/15/2019 10:54 PM 53.78 44.78 34.70 66.02 43.88 48.0 Not Reported 3.36 SW 5.14 S 9.62 S No 0.000 No Precipitation 05/15/2019 03:24 AM 05/15/2019 03:29 AM 0.000 0.000 0.000 0.020 0.020 Not Reported Not Reported
05/15/2019 10:59 PM 54.50 45.14 34.88 66.02 43.88 47.0 Not Reported 9.84 S 11.86 S 9.62 S No 0.000 No Precipitation 05/15/2019 03:24 AM 05/15/2019 03:29 AM 0.000 0.000 0.000 0.012 0.020 Not Reported Not Reported
05/15/2019 11:04 PM 54.68 45.50 35.06 66.02 43.88 47.0 Not Reported 13.65 S 10.74 S 14.99 S No 0.000 No Precipitation 05/15/2019 03:24 AM 05/15/2019 03:29 AM 0.000 0.000 0.000 0.012 0.020 Not Reported Not Reported
05/15/2019 11:09 PM 55.04 45.50 34.88 66.02 43.88 46.0 Not Reported 13.87 S 12.30 SW 14.99 S No 0.000 No Precipitation 05/15/2019 03:24 AM 05/15/2019 03:29 AM 0.000 0.000 0.000 0.008 0.020 Not Reported Not Reported
05/15/2019 11:14 PM 54.86 45.68 35.60 66.02 43.88 48.0 Not Reported 6.93 SW 8.95 SW 16.11 S No 0.000 No Precipitation 05/15/2019 03:24 AM 05/15/2019 03:29 AM 0.000 0.000 0.000 0.004 0.020 Not Reported Not Reported
05/15/2019 11:19 PM 54.32 45.68 36.32 66.02 43.88 50.0 Not Reported 10.07 SW 8.05 S 16.11 S No 0.000 No Precipitation 05/15/2019 03:24 AM 05/15/2019 03:29 AM 0.000 0.000 0.000 0.004 0.020 Not Reported Not Reported
05/15/2019 11:24 PM 54.14 45.68 36.50 66.02 43.88 51.0 Not Reported 9.40 SW 8.05 S 12.08 SW No 0.000 No Precipitation 05/15/2019 03:24 AM 05/15/2019 03:29 AM 0.000 0.000 0.000 0.004 0.020 Not Reported Not Reported
05/15/2019 11:29 PM 54.32 45.86 36.86 66.02 43.88 50.0 Not Reported 12.08 SW 8.72 SW 12.08 SW No 0.000 No Precipitation 05/15/2019 03:24 AM 05/15/2019 03:29 AM 0.000 0.000 0.000 0.000 0.020 Not Reported Not Reported
05/15/2019 11:34 PM 54.50 45.68 36.50 66.02 43.88 50.0 Not Reported 9.62 SW 13.20 S 13.65 SW No 0.000 No Precipitation 05/15/2019 03:24 AM 05/15/2019 03:29 AM 0.000 0.000 0.000 0.000 0.020 Not Reported Not Reported
05/15/2019 11:39 PM 54.50 45.32 35.24 66.02 43.88 49.0 Not Reported 9.40 SW 13.42 SW 13.65 SW No 0.000 No Precipitation 05/15/2019 03:24 AM 05/15/2019 03:29 AM 0.000 0.000 0.000 0.000 0.020 Not Reported Not Reported
05/15/2019 11:44 PM 54.14 45.68 36.32 66.02 43.88 50.0 Not Reported 10.07 SW 15.66 SW 14.76 SW No 0.000 No Precipitation 05/15/2019 03:24 AM 05/15/2019 03:29 AM 0.000 0.000 0.000 0.000 0.020 Not Reported Not Reported
05/15/2019 11:49 PM 54.14 45.68 36.50 66.02 43.88 50.0 Not Reported 12.30 SW 11.63 SW 14.76 SW No 0.000 No Precipitation 05/15/2019 03:24 AM 05/15/2019 03:29 AM 0.000 0.000 0.000 0.000 0.020 Not Reported Not Reported
05/15/2019 11:54 PM 54.14 45.68 36.32 66.02 43.88 50.0 Not Reported 14.54 S 10.96 S 15.66 SW No 0.000 No Precipitation 05/15/2019 03:24 AM 05/15/2019 03:29 AM 0.000 0.000 0.000 0.000 0.020 Not Reported Not Reported
05/15/2019 11:59 PM 54.68 45.50 35.42 66.02 43.88 49.0 Not Reported 18.79 S 19.46 S 15.66 SW No 0.000 No Precipitation 05/15/2019 03:24 AM 05/15/2019 03:29 AM 0.000 0.000 0.000 0.000 0.020 Not Reported Not Reported